WetterOnline ( https://www.wetteronline.ch )

Wetter aktuell Ronneby

Aktuelles Wetter: Ronneby (58m)

6-stündlich | Neueste Meldungen
Ortszeit Temperatur Wetter
Mo, 18.11. 7:00 7.9° C Sprühregen
Mo, 18.11. 1:00 7.8° C bedeckt
So, 17.11. 19:00 6.2° C bedeckt
So, 17.11. 13:00 7.9° C bedeckt
So, 17.11. 7:00 6.8° C bedeckt
So, 17.11. 1:00 7.3° C bedeckt
Sa, 16.11. 19:00 8.9° C bedeckt
Sa, 16.11. 13:00 8.7° C Sprühregen
Ortszeit Temperatur Wetter
Mo, 18.11. 12:20 9° C Sprühregen
Mo, 18.11. 12:00 8.7° C Sprühregen
Mo, 18.11. 11:50 9° C bedeckt
Mo, 18.11. 11:20 8° C Sprühregen
Mo, 18.11. 11:00 8.4° C Sprühregen
Mo, 18.11. 10:50 8° C Sprühregen
Mo, 18.11. 10:20 8° C bedeckt
Mo, 18.11. 10:00 8.1° C bedeckt
Mo, 18.11. 9:20 8° C bedeckt
Mo, 18.11. 9:00 8.1° C bedeckt
Ortszeit Relative Feuchte Sichtweite
Mo, 18.11. 7:00 100% 2.5 km
Mo, 18.11. 1:00 97% 16 km
So, 17.11. 19:00 97% 15 km
So, 17.11. 13:00 88% 30 km
So, 17.11. 7:00 92% 16 km
So, 17.11. 1:00 97% 10 km
Sa, 16.11. 19:00 97% 10 km
Sa, 16.11. 13:00 99% 5.0 km
Ortszeit Relative Feuchte Sichtweite
Mo, 18.11. 12:20 100% 3.0 km
Mo, 18.11. 12:00 100% 3.0 km
Mo, 18.11. 11:50 100% 3.0 km
Mo, 18.11. 11:20 100% 3.0 km
Mo, 18.11. 11:00 100% 3.0 km
Mo, 18.11. 10:50 100% 3.5 km
Mo, 18.11. 10:20 100% 6 km
Mo, 18.11. 10:00 100% 3.0 km
Mo, 18.11. 9:20 100% 3.0 km
Mo, 18.11. 9:00 100% 5.0 km
Ortszeit Niederschlagsmenge Niederschlagsart
Mo, 18.11. 7:00 0.1 l/m2 in 12 Std. Regen
Mo, 18.11. 1:00 0.1 l/m2 in 6 Std. Regenschauer
So, 17.11. 19:00 0.0 l/m2 in 12 Std. -
So, 17.11. 13:00 0.0 l/m2 in 6 Std. -
So, 17.11. 7:00 0.4 l/m2 in 12 Std. -
So, 17.11. 1:00 0.4 l/m2 in 6 Std. Schauer
Sa, 16.11. 19:00 1 l/m2 in 12 Std. Regenschauer
Sa, 16.11. 13:00 0.4 l/m2 in 6 Std. Schauer
Ortszeit Niederschlagsmenge Niederschlagsart
Mo, 18.11. 12:20 keine Meldung -
Mo, 18.11. 12:00 0.0 l/m2 in 1 Std. Sprühregen
Mo, 18.11. 11:50 keine Meldung -
Mo, 18.11. 11:20 keine Meldung -
Mo, 18.11. 11:00 0.0 l/m2 in 1 Std. -
Mo, 18.11. 10:50 keine Meldung -
Mo, 18.11. 10:20 keine Meldung -
Mo, 18.11. 10:00 0.0 l/m2 in 1 Std. Sprühregen
Mo, 18.11. 9:20 keine Meldung -
Mo, 18.11. 9:00 0.0 l/m2 in 1 Std. -
Ortszeit Stärke Spitze Richtung
km/h Bft. km/h Grad Sektor
Mo, 18.11. 7:00 25 4 40 80° O
Mo, 18.11. 1:00 22 4 - 80° O
So, 17.11. 19:00 7 2 11 60° NO
So, 17.11. 13:00 11 2 - 190° S
So, 17.11. 7:00 22 4 36 210° SW
So, 17.11. 1:00 22 4 - 220° SW
Sa, 16.11. 19:00 25 4 40 200° S
Sa, 16.11. 13:00 22 4 32 110° O
Ortszeit Stärke Spitze Richtung
km/h Bft. km/h Grad Sektor
Mo, 18.11. 12:20 19 3 - 100° O
Mo, 18.11. 12:00 22 4 32 90° O
Mo, 18.11. 11:50 24 4 - 80° O
Mo, 18.11. 11:20 22 4 - 90° O
Mo, 18.11. 11:00 22 4 32 100° O
Mo, 18.11. 10:50 22 4 - 100° O
Mo, 18.11. 10:20 22 4 - 90° O
Mo, 18.11. 10:00 22 4 36 90° O
Mo, 18.11. 9:20 24 4 - 90° O
Mo, 18.11. 9:00 25 4 40 90° O
Ortszeit Untergrenze Bedeckung Gattung
total tief tief mittel hoch
Mo, 18.11. 7:00 90 m 8/8 8/8 St - -
Mo, 18.11. 1:00 180 m 8/8 8/8 - - -
So, 17.11. 19:00 2100 m 8/8 8/8 - - -
So, 17.11. 13:00 3900 m 8/8 8/8 - - -
So, 17.11. 7:00 390 m 8/8 8/8 - - -
So, 17.11. 1:00 240 m 8/8 8/8 - - -
Sa, 16.11. 19:00 210 m 8/8 8/8 - - -
Sa, 16.11. 13:00 150 m 8/8 8/8 - - -
Ortszeit Bedeckungsgrad in Achtel und Wolkenuntergrenze
Mo, 18.11. 12:20 8(90m)
Mo, 18.11. 12:00 8(90m)
Mo, 18.11. 11:50 8(90m)
Mo, 18.11. 11:20 8(90m)
Mo, 18.11. 11:00 8(90m)
Mo, 18.11. 10:50 8(90m)
Mo, 18.11. 10:20 8(120m)
Mo, 18.11. 10:00 8(90m)
Mo, 18.11. 9:20 8(90m)
Mo, 18.11. 9:00 8(90m)
Ortszeit Luftdruck NN (hPa) Tendenz (hPa in 3 Std.)
Mo, 18.11. 7:00 1012 - 1,3
Mo, 18.11. 1:00 1015 - 1,7
So, 17.11. 19:00 1018 - 0,9
So, 17.11. 13:00 1018 + 0,6
So, 17.11. 7:00 1015 + 2,3
So, 17.11. 1:00 1009 + 1,5
Sa, 16.11. 19:00 1005 + 1,1
Sa, 16.11. 13:00 1006 - 2,3
Ortszeit Luftdruck NN (hPa) Tendenz (hPa in 3 Std.)
Mo, 18.11. 12:20 1010 keine Meldung
Mo, 18.11. 12:00 1010 - 1,5
Mo, 18.11. 11:50 1010 keine Meldung
Mo, 18.11. 11:20 1010 keine Meldung
Mo, 18.11. 11:00 1011 - 0,8
Mo, 18.11. 10:50 1011 keine Meldung
Mo, 18.11. 10:20 1011 keine Meldung
Mo, 18.11. 10:00 1012 - 0,4
Mo, 18.11. 9:20 1011 keine Meldung
Mo, 18.11. 9:00 1012 - 0,4
Ortszeit Schneehöhe (cm)
Mo, 18.11. 7:00 -
Mo, 18.11. 1:00 -
So, 17.11. 19:00 -
So, 17.11. 13:00 -
So, 17.11. 7:00 -
So, 17.11. 1:00 -
Sa, 16.11. 19:00 -
Sa, 16.11. 13:00 -
Ortszeit Schneehöhe (cm)
Mo, 18.11. 12:20 -
Mo, 18.11. 12:00 -
Mo, 18.11. 11:50 -
Mo, 18.11. 11:20 -
Mo, 18.11. 11:00 -
Mo, 18.11. 10:50 -
Mo, 18.11. 10:20 -
Mo, 18.11. 10:00 -
Mo, 18.11. 9:20 -
Mo, 18.11. 9:00 -
Link zu dieser Seite / Seite empfehlen

Das Wetter in ...